createdAt,value
2018-03-14T00:00:22.223Z,91.80
2018-03-14T00:02:49.819Z,91.90
2018-03-14T00:05:17.451Z,92.10
2018-03-14T00:07:45.090Z,92.20
2018-03-14T00:10:12.666Z,92.20
2018-03-14T00:12:40.342Z,92.50
2018-03-14T00:15:08.302Z,92.50
2018-03-14T00:17:36.341Z,92.50
2018-03-14T00:20:03.925Z,92.50
2018-03-14T00:22:33.942Z,92.60
2018-03-14T00:25:01.524Z,92.50
2018-03-14T00:27:29.140Z,92.60
2018-03-14T00:29:56.758Z,92.60
2018-03-14T00:32:24.347Z,92.60
2018-03-14T00:34:51.952Z,92.70
2018-03-14T00:37:19.559Z,92.70
2018-03-14T00:39:47.155Z,92.60
2018-03-14T00:42:14.765Z,92.60
2018-03-14T00:44:42.364Z,92.70
2018-03-14T00:47:09.983Z,92.80
2018-03-14T00:49:37.639Z,92.70
2018-03-14T00:52:05.258Z,92.60
2018-03-14T00:54:32.846Z,91.70
2018-03-14T00:57:00.464Z,91.70
2018-03-14T00:59:28.034Z,91.10
2018-03-14T01:01:55.658Z,91.50
2018-03-14T01:04:23.256Z,92.00
2018-03-14T01:06:51.258Z,92.40
2018-03-14T01:09:18.854Z,92.40
2018-03-14T01:11:46.445Z,92.50
2018-03-14T01:14:14.114Z,92.40
2018-03-14T01:16:41.716Z,92.40
2018-03-14T01:19:09.337Z,92.20
2018-03-14T01:21:36.926Z,92.30
2018-03-14T01:24:04.563Z,92.30
2018-03-14T01:26:32.152Z,92.20
2018-03-14T01:28:59.764Z,92.30
2018-03-14T01:31:27.382Z,92.10
2018-03-14T01:33:55.040Z,91.90
2018-03-14T01:36:22.618Z,92.00
2018-03-14T01:38:50.242Z,91.90
2018-03-14T01:41:17.850Z,91.70
2018-03-14T01:43:45.459Z,91.40
2018-03-14T01:46:13.055Z,91.50
2018-03-14T01:48:40.692Z,91.60
2018-03-14T01:51:08.323Z,91.80
2018-03-14T01:53:35.975Z,91.80
2018-03-14T01:56:03.546Z,91.70
2018-03-14T01:58:31.200Z,91.70
2018-03-14T02:00:58.762Z,91.60
2018-03-14T02:03:26.378Z,91.70
2018-03-14T02:05:54.403Z,91.30
2018-03-14T02:08:22.091Z,91.30
2018-03-14T02:10:49.717Z,91.20
2018-03-14T02:13:17.342Z,91.10
2018-03-14T02:15:44.924Z,91.20
2018-03-14T02:18:12.516Z,91.00
2018-03-14T02:20:40.094Z,91.00
2018-03-14T02:23:07.677Z,91.10
2018-03-14T02:25:35.363Z,91.40
2018-03-14T02:28:02.990Z,91.00
2018-03-14T02:30:30.662Z,91.00
2018-03-14T02:32:58.327Z,91.00
2018-03-14T02:35:26.309Z,91.20
2018-03-14T02:37:53.889Z,91.20
2018-03-14T02:40:21.491Z,91.00
2018-03-14T02:42:49.105Z,91.20
2018-03-14T02:45:16.682Z,91.30
2018-03-14T02:47:44.275Z,91.30
2018-03-14T02:50:11.903Z,91.40
2018-03-14T02:52:39.463Z,91.50
2018-03-14T02:55:07.049Z,91.20
2018-03-14T02:57:34.631Z,91.00
2018-03-14T03:00:02.226Z,91.30
2018-03-14T03:02:29.865Z,91.20
2018-03-14T03:04:57.455Z,91.10
2018-03-14T03:07:25.050Z,91.10
2018-03-14T03:09:52.690Z,91.20
2018-03-14T03:12:20.303Z,91.30
2018-03-14T03:14:47.897Z,91.20
2018-03-14T03:17:15.762Z,91.00
2018-03-14T03:19:43.382Z,91.40
2018-03-14T03:22:10.977Z,91.40
2018-03-14T03:24:38.570Z,91.40
2018-03-14T03:27:06.182Z,91.40
2018-03-14T03:29:33.770Z,91.50
2018-03-14T03:32:01.409Z,91.40
2018-03-14T03:34:28.986Z,91.50
2018-03-14T03:36:56.615Z,91.50
2018-03-14T03:39:24.173Z,91.50
2018-03-14T03:41:51.782Z,91.60
2018-03-14T03:44:19.391Z,91.60
2018-03-14T03:46:46.985Z,91.70
2018-03-14T03:49:14.599Z,91.80
2018-03-14T03:51:42.186Z,91.80
2018-03-14T03:54:09.823Z,91.80
2018-03-14T03:56:37.661Z,91.80
2018-03-14T03:59:05.658Z,91.80
2018-03-14T04:01:33.250Z,91.70
2018-03-14T04:04:00.817Z,91.70
2018-03-14T04:06:28.384Z,91.70
2018-03-14T04:08:55.970Z,91.70
2018-03-14T04:11:23.616Z,91.70
2018-03-14T04:13:51.615Z,91.70
2018-03-14T04:16:19.187Z,91.70
2018-03-14T04:18:46.779Z,91.60
2018-03-14T04:21:14.394Z,91.60
2018-03-14T04:23:42.018Z,91.60
2018-03-14T04:26:09.628Z,91.60
2018-03-14T04:28:37.197Z,91.50
2018-03-14T04:31:04.763Z,91.50
2018-03-14T04:33:32.427Z,91.40
2018-03-14T04:35:59.984Z,91.40
2018-03-14T04:38:29.866Z,91.40
2018-03-14T04:40:57.457Z,91.40
2018-03-14T04:43:25.057Z,91.50
2018-03-14T04:45:52.637Z,91.50
2018-03-14T04:48:20.258Z,91.70
2018-03-14T04:50:47.834Z,91.70
2018-03-14T04:53:15.458Z,91.70
2018-03-14T04:55:43.044Z,91.70
2018-03-14T04:58:10.691Z,91.70
2018-03-14T05:00:38.688Z,91.90
2018-03-14T05:03:06.271Z,91.90
2018-03-14T05:05:33.883Z,91.90
2018-03-14T05:08:01.474Z,92.00
2018-03-14T05:10:29.023Z,92.00
2018-03-14T05:12:56.635Z,91.90
2018-03-14T05:15:24.192Z,91.90
2018-03-14T05:17:51.803Z,91.80
2018-03-14T05:20:19.403Z,91.80
2018-03-14T05:22:47.002Z,91.80
2018-03-14T05:25:14.623Z,91.70
2018-03-14T05:27:42.242Z,91.70
2018-03-14T05:30:09.785Z,91.70
2018-03-14T05:32:37.803Z,91.70
2018-03-14T05:35:05.352Z,91.70
2018-03-14T05:37:32.960Z,91.70
2018-03-14T05:40:00.539Z,91.80
2018-03-14T05:42:28.137Z,91.60
2018-03-14T05:44:55.762Z,91.50
2018-03-14T05:47:23.541Z,91.20
2018-03-14T05:49:51.130Z,90.90
2018-03-14T05:52:18.806Z,90.60
2018-03-14T05:54:46.398Z,90.40
2018-03-14T05:57:14.373Z,90.10
2018-03-14T05:59:42.066Z,90.10
2018-03-14T06:02:09.627Z,89.80
2018-03-14T06:04:37.190Z,89.80
2018-03-14T06:07:04.750Z,89.40
2018-03-14T06:09:32.391Z,89.40
2018-03-14T06:11:59.958Z,88.80
2018-03-14T06:14:27.641Z,88.40
2018-03-14T06:16:55.257Z,88.00
2018-03-14T06:19:23.151Z,88.50
2018-03-14T06:21:50.714Z,88.50
2018-03-14T06:24:18.297Z,88.90
2018-03-14T06:26:46.326Z,88.20
2018-03-14T06:29:13.912Z,88.20
2018-03-14T06:31:41.522Z,88.20
2018-03-14T06:34:09.534Z,87.60
2018-03-14T06:36:37.153Z,87.70
2018-03-14T06:39:04.747Z,87.30
2018-03-14T06:41:32.338Z,87.30
2018-03-14T06:44:00.311Z,87.10
2018-03-14T06:46:27.899Z,87.10
2018-03-14T06:48:55.497Z,86.90
2018-03-14T06:51:23.133Z,86.40
2018-03-14T06:53:50.682Z,85.70
2018-03-14T06:56:18.287Z,86.20
2018-03-14T06:58:57.764Z,86.40
2018-03-14T07:01:37.086Z,85.80
2018-03-14T07:04:16.434Z,85.50
2018-03-14T07:06:44.030Z,85.50
2018-03-14T07:09:11.601Z,85.90
2018-03-14T07:11:39.255Z,86.00
2018-03-14T07:14:06.814Z,86.00
2018-03-14T07:16:34.406Z,85.90
2018-03-14T07:19:02.089Z,85.30
2018-03-14T07:21:29.612Z,85.00
2018-03-14T07:23:57.252Z,84.80
2018-03-14T07:26:24.890Z,84.90
2018-03-14T07:28:52.467Z,84.00
2018-03-14T07:31:33.310Z,84.20
2018-03-14T07:34:00.890Z,83.70
2018-03-14T07:36:28.511Z,83.70
2018-03-14T07:38:56.061Z,84.10
2018-03-14T07:41:23.626Z,84.20
2018-03-14T07:43:51.270Z,83.50
2018-03-14T07:46:19.515Z,83.00
2018-03-14T07:48:47.120Z,83.20
2018-03-14T07:51:14.734Z,83.40
2018-03-14T07:53:42.287Z,82.60
2018-03-14T07:56:09.887Z,81.90
2018-03-14T07:58:37.525Z,82.30
2018-03-14T08:01:05.152Z,82.60
2018-03-14T08:03:32.783Z,82.90
2018-03-14T08:06:00.338Z,82.60
2018-03-14T08:08:27.943Z,80.80
2018-03-14T08:11:06.466Z,81.10
2018-03-14T08:13:34.202Z,80.70
2018-03-14T08:16:01.713Z,79.80
2018-03-14T08:18:29.661Z,80.20
2018-03-14T08:20:57.293Z,80.20
2018-03-14T08:23:24.845Z,80.30
2018-03-14T08:25:52.466Z,78.70
2018-03-14T08:28:20.092Z,78.90
2018-03-14T08:30:47.673Z,79.60
2018-03-14T08:33:15.654Z,80.00
2018-03-14T08:35:43.252Z,80.00
2018-03-14T08:38:10.860Z,79.40
2018-03-14T08:40:49.706Z,79.30
2018-03-14T08:43:17.272Z,78.90
2018-03-14T08:45:44.868Z,79.20
2018-03-14T08:48:12.501Z,78.10
2018-03-14T08:50:40.079Z,77.40
2018-03-14T08:53:07.639Z,77.00
2018-03-14T08:55:35.282Z,77.10
2018-03-14T08:58:02.886Z,76.20
2018-03-14T09:00:30.842Z,73.50
2018-03-14T09:02:58.440Z,73.50
2018-03-14T09:05:25.988Z,70.90
2018-03-14T09:07:53.622Z,71.70
2018-03-14T09:10:21.217Z,72.40
2018-03-14T09:12:48.779Z,73.20
2018-03-14T09:15:16.370Z,71.90
2018-03-14T09:17:44.019Z,71.60
2018-03-14T09:20:11.587Z,73.10
2018-03-14T09:22:39.217Z,71.30
2018-03-14T09:25:07.101Z,72.70
2018-03-14T09:27:35.144Z,70.80
2018-03-14T09:30:02.786Z,69.60
2018-03-14T09:32:30.426Z,68.40
2018-03-14T09:34:57.992Z,68.90
2018-03-14T09:37:25.605Z,68.80
2018-03-14T09:39:53.166Z,69.80
2018-03-14T09:42:20.770Z,72.70
2018-03-14T09:44:48.759Z,72.00
2018-03-14T09:47:16.326Z,72.00
2018-03-14T09:49:43.936Z,69.70
2018-03-14T09:52:11.478Z,65.80
2018-03-14T09:54:39.058Z,66.50
2018-03-14T09:57:06.695Z,66.70
2018-03-14T09:59:34.330Z,66.40
2018-03-14T10:02:01.887Z,65.40
2018-03-14T10:04:29.450Z,69.70
2018-03-14T10:06:57.005Z,70.50
2018-03-14T10:09:24.627Z,67.80
2018-03-14T10:11:52.569Z,66.30
2018-03-14T10:14:20.204Z,66.30
2018-03-14T10:16:47.759Z,65.90
2018-03-14T10:19:15.361Z,66.40
2018-03-14T10:21:42.955Z,67.10
2018-03-14T10:24:10.552Z,66.60
2018-03-14T10:26:38.106Z,67.30
2018-03-14T10:29:06.340Z,68.70
2018-03-14T10:31:34.821Z,67.30
2018-03-14T10:34:02.423Z,65.80
2018-03-14T10:36:30.052Z,66.50
2018-03-14T10:38:57.625Z,62.50
2018-03-14T10:41:25.178Z,61.90
2018-03-14T10:43:52.761Z,63.70
2018-03-14T10:46:20.314Z,61.00
2018-03-14T10:48:47.898Z,61.50
2018-03-14T10:51:15.492Z,61.90
2018-03-14T10:53:43.130Z,64.40
2018-03-14T10:56:10.716Z,63.60
2018-03-14T10:58:38.344Z,63.70
2018-03-14T11:01:09.825Z,62.50
2018-03-14T11:03:43.062Z,64.40
2018-03-14T11:06:10.675Z,67.60
2018-03-14T11:08:39.127Z,65.60
2018-03-14T11:11:06.738Z,67.60
2018-03-14T11:13:34.302Z,65.10
2018-03-14T11:16:01.917Z,62.40
2018-03-14T11:18:29.515Z,61.20
2018-03-14T11:20:57.143Z,62.10
2018-03-14T11:23:24.717Z,60.80
2018-03-14T11:25:52.304Z,62.60
2018-03-14T11:28:19.930Z,62.60
2018-03-14T11:30:47.570Z,63.40
2018-03-14T11:33:15.283Z,62.10
2018-03-14T11:35:42.856Z,61.70
2018-03-14T11:38:10.417Z,62.40
2018-03-14T11:40:38.039Z,61.30
2018-03-14T11:43:05.634Z,63.50
2018-03-14T11:45:33.230Z,61.40
2018-03-14T11:48:00.834Z,61.50
2018-03-14T11:50:28.422Z,61.00
2018-03-14T11:52:56.041Z,63.70
2018-03-14T11:55:23.655Z,63.10
2018-03-14T11:57:51.630Z,62.90
2018-03-14T12:00:19.235Z,62.90
2018-03-14T12:02:46.864Z,62.30
2018-03-14T12:05:14.443Z,62.70
2018-03-14T12:07:42.014Z,62.30
2018-03-14T12:10:09.658Z,63.50
2018-03-14T12:12:37.617Z,62.60
2018-03-14T12:15:05.167Z,62.60
2018-03-14T12:17:32.768Z,61.60
2018-03-14T12:20:00.306Z,58.50
2018-03-14T12:22:31.753Z,59.30
2018-03-14T12:24:59.355Z,62.30
2018-03-14T12:27:26.947Z,59.00
2018-03-14T12:29:54.557Z,63.00
2018-03-14T12:32:22.199Z,60.80
2018-03-14T12:34:49.806Z,60.00
2018-03-14T12:37:17.393Z,60.90
2018-03-14T12:39:44.964Z,62.30
2018-03-14T12:42:12.578Z,60.20
2018-03-14T12:44:40.157Z,60.20
2018-03-14T12:47:07.738Z,61.70
2018-03-14T12:49:35.297Z,61.40
2018-03-14T12:52:02.889Z,59.30
2018-03-14T12:54:30.511Z,58.80
2018-03-14T12:56:58.187Z,54.30
2018-03-14T12:59:25.782Z,58.40
2018-03-14T13:01:53.397Z,59.00
2018-03-14T13:04:20.959Z,55.40
2018-03-14T13:06:48.558Z,60.30
2018-03-14T13:09:16.118Z,59.40
2018-03-14T13:11:58.646Z,58.70
2018-03-14T13:14:26.252Z,56.60
2018-03-14T13:16:54.250Z,58.70
2018-03-14T13:19:23.017Z,57.50
2018-03-14T13:21:50.674Z,59.10
2018-03-14T13:24:18.274Z,59.00
2018-03-14T13:26:46.257Z,58.50
2018-03-14T13:29:13.872Z,58.50
2018-03-14T13:31:41.446Z,58.40
2018-03-14T13:34:09.039Z,59.10
2018-03-14T13:36:36.622Z,57.60
2018-03-14T13:39:04.266Z,57.90
2018-03-14T13:41:31.810Z,57.00
2018-03-14T13:43:59.370Z,58.70
2018-03-14T13:46:26.971Z,58.40
2018-03-14T13:48:54.586Z,57.90
2018-03-14T13:51:22.167Z,57.40
2018-03-14T13:53:49.748Z,55.60
2018-03-14T13:56:17.382Z,53.70
2018-03-14T13:58:44.998Z,55.20
2018-03-14T14:01:12.551Z,54.80
2018-03-14T14:03:40.140Z,55.70
2018-03-14T14:06:07.696Z,56.30
2018-03-14T14:08:35.282Z,56.00
2018-03-14T14:11:02.888Z,54.10
2018-03-14T14:13:30.884Z,53.60
2018-03-14T14:15:58.507Z,53.40
2018-03-14T14:18:26.129Z,53.00
2018-03-14T14:20:53.702Z,52.80
2018-03-14T14:23:21.379Z,51.90
2018-03-14T14:25:48.935Z,52.40
2018-03-14T14:28:16.568Z,52.20
2018-03-14T14:30:44.125Z,52.50
2018-03-14T14:33:11.723Z,52.10
2018-03-14T14:35:39.777Z,50.20
2018-03-14T14:38:07.312Z,50.20
2018-03-14T14:40:34.903Z,50.50
2018-03-14T14:43:02.516Z,50.20
2018-03-14T14:45:30.102Z,49.60
2018-03-14T14:47:57.657Z,48.90
2018-03-14T14:50:25.247Z,48.60
2018-03-14T14:52:52.874Z,48.10
2018-03-14T14:55:20.527Z,47.90
2018-03-14T14:57:48.099Z,47.40
2018-03-14T15:00:15.697Z,46.80
2018-03-14T15:02:43.302Z,46.90
2018-03-14T15:05:10.933Z,46.90
2018-03-14T15:07:38.544Z,47.30
2018-03-14T15:10:06.162Z,47.60
2018-03-14T15:12:33.790Z,46.00
2018-03-14T15:15:01.410Z,46.70
2018-03-14T15:17:30.220Z,46.10
2018-03-14T15:19:57.794Z,45.50
2018-03-14T15:22:25.345Z,46.20
2018-03-14T15:24:53.184Z,45.60
2018-03-14T15:27:20.955Z,45.00
2018-03-14T15:29:48.675Z,45.90
2018-03-14T15:32:16.245Z,45.00
2018-03-14T15:34:43.847Z,45.90
2018-03-14T15:37:11.474Z,46.20
2018-03-14T15:39:39.014Z,46.00
2018-03-14T15:42:06.677Z,46.80
2018-03-14T15:44:34.240Z,47.40
2018-03-14T15:47:01.858Z,47.40
2018-03-14T15:49:29.477Z,47.60
2018-03-14T15:51:57.054Z,47.80
2018-03-14T15:54:24.672Z,47.20
2018-03-14T15:56:52.256Z,47.40
2018-03-14T15:59:19.921Z,47.20
2018-03-14T16:01:47.565Z,47.30
2018-03-14T16:04:15.207Z,47.40
2018-03-14T16:06:43.190Z,48.10
2018-03-14T16:09:10.742Z,48.00
2018-03-14T16:11:38.372Z,48.40
2018-03-14T16:14:06.339Z,48.80
2018-03-14T16:16:34.239Z,48.50
2018-03-14T16:19:01.934Z,48.40
2018-03-14T16:21:30.306Z,48.60
2018-03-14T16:23:58.050Z,49.00
2018-03-14T16:26:25.638Z,49.20
2018-03-14T16:28:53.394Z,50.50
2018-03-14T16:31:21.031Z,52.90
2018-03-14T16:33:48.631Z,55.50
2018-03-14T16:36:16.772Z,60.00
2018-03-14T16:38:46.322Z,60.00
2018-03-14T16:41:20.367Z,61.60
2018-03-14T16:43:48.161Z,62.80
2018-03-14T16:46:15.774Z,64.30
2018-03-14T16:48:43.374Z,65.30
2018-03-14T16:51:10.947Z,65.50
2018-03-14T16:53:38.586Z,66.20
2018-03-14T16:56:06.159Z,67.00
2018-03-14T16:58:33.748Z,67.00
2018-03-14T17:01:01.340Z,67.40
2018-03-14T17:03:28.935Z,67.90
2018-03-14T17:05:56.530Z,68.30
2018-03-14T17:08:24.129Z,68.50
2018-03-14T17:10:51.690Z,68.90
2018-03-14T17:13:19.327Z,69.10
2018-03-14T17:15:46.938Z,69.50
2018-03-14T17:18:14.522Z,69.70
2018-03-14T17:20:42.158Z,69.90
2018-03-14T17:23:09.811Z,70.30
2018-03-14T17:25:37.413Z,70.30
2018-03-14T17:28:04.974Z,70.50
2018-03-14T17:30:32.563Z,70.90
2018-03-14T17:33:00.150Z,70.90
2018-03-14T17:35:27.747Z,71.10
2018-03-14T17:37:55.309Z,71.10
2018-03-14T17:40:22.883Z,71.50
2018-03-14T17:42:50.486Z,72.00
2018-03-14T17:45:18.026Z,72.10
2018-03-14T17:47:45.639Z,72.40
2018-03-14T17:50:13.302Z,72.60
2018-03-14T17:52:40.926Z,72.80
2018-03-14T17:55:08.546Z,73.10
2018-03-14T17:57:36.589Z,73.10
2018-03-14T18:00:04.199Z,73.40
2018-03-14T18:02:31.786Z,73.80
2018-03-14T18:04:59.520Z,73.80
2018-03-14T18:07:27.575Z,73.80
2018-03-14T18:09:55.155Z,74.10
2018-03-14T18:12:22.758Z,74.10
2018-03-14T18:14:50.465Z,74.40
2018-03-14T18:17:18.218Z,74.90
2018-03-14T18:19:46.097Z,75.20
2018-03-14T18:22:13.788Z,75.10
2018-03-14T18:24:41.709Z,75.70
2018-03-14T18:27:09.373Z,75.40
2018-03-14T18:29:37.117Z,75.40
2018-03-14T18:32:04.681Z,75.40
2018-03-14T18:34:32.340Z,75.70
2018-03-14T18:36:59.886Z,75.80
2018-03-14T18:39:27.487Z,76.20
2018-03-14T18:41:55.062Z,76.00
2018-03-14T18:44:23.050Z,76.20
2018-03-14T18:46:50.639Z,76.20
2018-03-14T18:49:18.317Z,76.30
2018-03-14T18:51:45.891Z,76.40
2018-03-14T18:54:13.527Z,76.40
2018-03-14T18:56:41.080Z,76.30
2018-03-14T18:59:08.649Z,76.40
2018-03-14T19:01:36.267Z,76.40
2018-03-14T19:04:04.284Z,76.90
2018-03-14T19:06:31.890Z,76.90
2018-03-14T19:08:59.648Z,77.00
2018-03-14T19:11:27.443Z,77.20
2018-03-14T19:13:55.755Z,77.40
2018-03-14T19:16:23.833Z,77.30
2018-03-14T19:18:51.456Z,77.30
2018-03-14T19:21:19.085Z,77.10
2018-03-14T19:23:46.622Z,77.20
2018-03-14T19:26:14.579Z,77.60
2018-03-14T19:28:42.150Z,77.60
2018-03-14T19:31:09.736Z,77.60
2018-03-14T19:33:37.347Z,77.70
2018-03-14T19:36:04.952Z,77.80
2018-03-14T19:38:32.510Z,77.90
2018-03-14T19:41:00.087Z,77.90
2018-03-14T19:43:27.694Z,78.00
2018-03-14T19:45:55.315Z,78.10
2018-03-14T19:48:22.909Z,78.30
2018-03-14T19:50:50.518Z,78.30
2018-03-14T19:53:18.176Z,78.10
2018-03-14T19:55:45.803Z,78.10
2018-03-14T19:58:13.385Z,78.30
2018-03-14T20:00:41.009Z,78.40
2018-03-14T20:03:08.604Z,78.30
2018-03-14T20:05:36.273Z,78.70
2018-03-14T20:08:04.226Z,78.70
2018-03-14T20:10:31.819Z,78.70
2018-03-14T20:12:59.433Z,78.80
2018-03-14T20:15:26.982Z,78.80
2018-03-14T20:17:54.613Z,78.90
2018-03-14T20:20:22.190Z,78.90
2018-03-14T20:22:49.789Z,79.10
2018-03-14T20:25:17.383Z,79.20
2018-03-14T20:27:45.057Z,79.30
2018-03-14T20:30:12.597Z,79.10
2018-03-14T20:32:40.207Z,79.10
2018-03-14T20:35:07.811Z,79.30
2018-03-14T20:37:35.444Z,79.50
2018-03-14T20:40:03.015Z,79.50
2018-03-14T20:42:30.599Z,79.80
2018-03-14T20:44:58.216Z,79.80
2018-03-14T20:47:25.843Z,80.00
2018-03-14T20:49:53.456Z,80.00
2018-03-14T20:52:21.080Z,80.30
2018-03-14T20:54:48.667Z,80.80
2018-03-14T20:57:16.311Z,80.30
2018-03-14T20:59:43.925Z,80.20
2018-03-14T21:02:11.578Z,80.70
2018-03-14T21:04:39.780Z,80.60
2018-03-14T21:07:07.484Z,80.70
2018-03-14T21:09:35.125Z,80.70
2018-03-14T21:12:03.133Z,80.90
2018-03-14T21:14:30.700Z,80.90
2018-03-14T21:16:58.326Z,80.90
2018-03-14T21:19:25.901Z,80.80
2018-03-14T21:21:53.527Z,80.80
2018-03-14T21:24:21.142Z,81.20
2018-03-14T21:26:48.706Z,81.20
2018-03-14T21:29:16.319Z,81.20
2018-03-14T21:31:43.884Z,81.40
2018-03-14T21:34:11.438Z,81.40
2018-03-14T21:36:39.016Z,81.50
2018-03-14T21:39:06.670Z,81.60
2018-03-14T21:41:34.224Z,81.70
2018-03-14T21:44:01.814Z,81.70
2018-03-14T21:46:29.477Z,81.70
2018-03-14T21:48:57.079Z,82.00
2018-03-14T21:51:24.670Z,82.20
2018-03-14T21:53:52.271Z,82.40
2018-03-14T21:56:19.893Z,82.40
2018-03-14T21:58:47.556Z,82.50
2018-03-14T22:01:15.105Z,82.50
2018-03-14T22:03:42.737Z,82.80
2018-03-14T22:06:10.386Z,82.60
2018-03-14T22:08:37.928Z,83.00
2018-03-14T22:11:05.560Z,82.90
2018-03-14T22:13:33.710Z,82.90
2018-03-14T22:16:01.266Z,82.90
2018-03-14T22:18:28.862Z,83.00
2018-03-14T22:20:56.403Z,82.90
2018-03-14T22:23:24.023Z,83.00
2018-03-14T22:25:51.581Z,82.90
2018-03-14T22:28:19.167Z,83.10
2018-03-14T22:30:46.819Z,83.20
2018-03-14T22:33:14.371Z,83.60
2018-03-14T22:35:41.960Z,83.60
2018-03-14T22:38:09.519Z,83.60
2018-03-14T22:40:37.079Z,83.60
2018-03-14T22:43:04.706Z,83.70
2018-03-14T22:45:32.327Z,83.80
2018-03-14T22:47:59.919Z,83.70
2018-03-14T22:50:27.522Z,83.90
2018-03-14T22:52:55.123Z,83.80
2018-03-14T22:55:22.723Z,84.10
2018-03-14T22:57:50.366Z,84.00
2018-03-14T23:00:17.982Z,84.00
2018-03-14T23:02:45.962Z,84.00
2018-03-14T23:05:13.607Z,84.00
2018-03-14T23:07:41.207Z,83.90
2018-03-14T23:10:08.806Z,83.80
2018-03-14T23:12:36.422Z,83.90
2018-03-14T23:15:04.157Z,84.20
2018-03-14T23:17:31.752Z,84.20
2018-03-14T23:19:59.347Z,84.20
2018-03-14T23:22:26.916Z,84.30
2018-03-14T23:24:54.514Z,84.20
2018-03-14T23:27:22.067Z,84.20
2018-03-14T23:29:49.617Z,84.30
2018-03-14T23:32:17.258Z,84.30
2018-03-14T23:34:45.287Z,84.40
2018-03-14T23:37:12.961Z,84.40
2018-03-14T23:39:40.570Z,84.50
2018-03-14T23:42:08.175Z,84.60
2018-03-14T23:44:35.756Z,84.80
2018-03-14T23:47:03.784Z,85.10
2018-03-14T23:49:31.368Z,85.10
2018-03-14T23:51:58.933Z,85.00
2018-03-14T23:54:26.550Z,84.50
2018-03-14T23:56:54.144Z,84.80
2018-03-14T23:59:21.742Z,85.00
